AirNav   Pilot Hours Calculator
 
 1127 users online  

28MA Cannizzaro Field Airport
Southwick, Massachusetts, USA

GOING TO SOUTHWICK?


FAA INFORMATION EFFECTIVE 02 JANUARY 2020

Location

FAA Identifier: 28MA
Lat/Long: 42-04-47.3000N 072-49-05.3000W
42-04.788333N 072-49.088333W
42.0798056,-72.8181389
(estimated)
Elevation: 250 ft. / 76 m (estimated)
Variation: 15W (1995)
From city: 3 miles W of SOUTHWICK, MA
Time zone: UTC -5 (UTC -4 during Daylight Saving Time)
Zip code: 01077

Airport Operations

Airport use: Private use. Permission required prior to landing
Activation date: 08/1998
Control tower: no
ARTCC: BOSTON CENTER
FSS: BURLINGTON FLIGHT SERVICE STATION
Attendance: UNATNDD
Segmented circle: no

Airport Communications

WX ASOS at BAF (7 nm NE): 127.1 (413-568-2267)
WX ASOS at BDL (10 nm SE): PHONE 860-386-3480

Nearby radio navigation aids

VOR radial/distance  VOR name  Freq  Var
BAFr237/6.7BARNES VORTAC113.0014W
CTRr168/14.0CHESTER VOR/DME115.1013W
HFDr348/29.0HARTFORD VOR/DME114.9013W
PWLr074/39.6PAWLING VOR/DME114.3012W

 
NDB name  Hdg/Dist  Freq  Var  ID
GREAT BARRINGTON117/26.839514WGBR --. -... .-.

Airport Services

Runway Information

Runway 3/21

Dimensions: 1600 x 50 ft. / 488 x 15 m
Surface: turf
RUNWAY 3  RUNWAY 21
Traffic pattern: leftleft

Airport Ownership and Management from official FAA records

Ownership: Privately-owned
Owner: MICHAEL & NANCY CANNIZZARO
327 NORTH LOOMIS STREET
SOUTHWICK, MA 01077
Phone 413-569-5857
Manager: MICHAEL & NANCY CANNIZZARO
327 NORTH LOOMIS STREET
SOUTHWICK, MA 01077
Phone 413-569-5857

Additional Remarks

A58-03 03/21 80 FT TREES ALONG S SIDE OF RY.
FOR CD CTC YANKEE APCH AT 860-386-3597

Instrument Procedures

There are no published instrument procedures at 28MA.

Some nearby airports with instrument procedures:

KBAF - Westfield-Barnes Regional Airport (7 nm NE)
KBDL - Bradley International Airport (10 nm SE)
KCEF - Westover Air Reserve Base/Metropolitan Airport (14 nm NE)
7B2 - Northampton Airport (18 nm NE)
KHFD - Hartford-Brainard Airport (22 nm S)
 
Loc | Ops | Rwys | IFR | FBO | Links
Com | Nav | Svcs | Stats | Notes
Area around 28MA (Cannizzaro Field Airport)
 
Road maps at: MapQuest Bing Google
 
Aerial photo
No photo
 
Sectional chart

 
Airport distance calculator
Flying to Cannizzaro Field Airport? Find the distance to fly.

From to 28MA

Sunrise and sunset
Times for 21-Jan-2020
 Local
(UTC-5)
 Zulu
(UTC)
Morning civil twilight06:4411:44
Sunrise07:1512:15
Sunset16:5121:51
Evening civil twilight17:2122:21

Current date and time
Zulu (UTC)  22-Jan-2020 00:44:41
Local (UTC-5)  21-Jan-2020 19:44:41
 
METAR
KBAF 
7nm NE 
212353Z 32006KT 10SM CLR M06/M18 A3042 RMK AO2 SLP313 T10611183 11017 21072 51014
KBDL 
11nm SE 
212351Z 03003KT 10SM FEW160 FEW200 M06/M18 A3043 RMK AO2 SLP307 4/003 T10561183 11011 21061 51016
KCEF 
15nm NE 
212356Z 00000KT 10SM CLR M08/M19 A3041 RMK AO2A SLP310 4/002 T10821186 11025 21082 52014
TAF
KBAF 
7nm NE 
211737Z 2118/2218 01005KT P6SM SCT250 FM212100 00000KT P6SM FEW250 FM221500 27005KT P6SM FEW200
KBDL 
11nm SE 
212047Z 2121/2224 00000KT P6SM FEW200 FM221500 20005KT P6SM SKC
KCEF 
15nm NE 
211900Z 2119/2301 36009KT 9999 SCT160 BKN200 QNH3037INS BECMG 2202/2203 VRB06KT 9999 SCT100 QNH3037INS BECMG 2214/2215 25006KT 9999 FEW035 QNH3037INS BECMG 2221/2222 VRB06KT 9999 FEW250 QNH3039INS TX01/2219Z TNM14/2211Z
NOTAMs
Click for the latest NOTAMs
NOTAMs are issued by the DoD/FAA and will open in a separate window not controlled by AirNav.

 

 
 

Would you like to see your business listed on this page?

 If your business provides an interesting product or service to pilots, flight crews, aircraft, or users of the Cannizzaro Field Airport, you should consider listing it here.  To start the listing process, click on the button below
 
Add a business
 

Other Pages about Cannizzaro Field Airport

Update a link
 
Copyright © AirNav, LLC. All rights reserved. Privacy Policy  Contact